createdAt,value
2022-08-17T00:00:52.093Z,3.60
2022-08-17T00:03:26.659Z,4.00
2022-08-17T00:06:01.542Z,3.75
2022-08-17T00:08:34.780Z,3.92
2022-08-17T00:11:08.276Z,4.03
2022-08-17T00:13:41.119Z,3.92
2022-08-17T00:16:19.959Z,4.00
2022-08-17T00:19:01.912Z,4.25
2022-08-17T00:22:34.726Z,4.88
2022-08-17T00:24:32.351Z,4.00
2022-08-17T00:27:03.713Z,4.20
2022-08-17T00:29:34.826Z,4.22
2022-08-17T00:33:22.800Z,4.15
2022-08-17T00:35:00.338Z,4.22
2022-08-17T00:37:31.502Z,4.40
2022-08-17T00:40:02.429Z,4.70
2022-08-17T00:42:33.638Z,4.63
2022-08-17T00:45:04.763Z,4.50
2022-08-17T00:47:38.493Z,4.40
2022-08-17T00:50:11.456Z,4.88
2022-08-17T00:52:48.687Z,5.15
2022-08-17T00:55:19.607Z,4.68
2022-08-17T00:57:55.517Z,4.95
2022-08-17T01:00:29.587Z,5.05
2022-08-17T01:03:09.079Z,4.88
2022-08-17T01:05:42.732Z,4.85
2022-08-17T01:08:19.915Z,4.80
2022-08-17T01:11:00.380Z,4.68
2022-08-17T01:13:41.045Z,5.47
2022-08-17T01:16:18.950Z,4.78
2022-08-17T01:18:55.430Z,4.93
2022-08-17T01:21:33.904Z,5.18
2022-08-17T01:24:07.904Z,5.68
2022-08-17T01:26:41.199Z,5.97
2022-08-17T01:29:13.237Z,5.15
2022-08-17T01:31:48.737Z,2.20
2022-08-17T01:34:21.900Z,1.88
2022-08-17T01:36:53.244Z,3.05
2022-08-17T01:39:33.161Z,3.85
2022-08-17T01:42:10.006Z,4.03
2022-08-17T01:44:41.546Z,4.88
2022-08-17T01:47:12.625Z,4.93
2022-08-17T01:49:43.896Z,5.05
2022-08-17T01:52:16.088Z,5.00
2022-08-17T01:54:51.124Z,4.95
2022-08-17T01:57:22.372Z,4.57
2022-08-17T01:59:53.692Z,4.10
2022-08-17T02:02:30.339Z,2.30
2022-08-17T02:05:02.577Z,2.00
2022-08-17T02:07:33.383Z,4.65
2022-08-17T02:10:33.743Z,4.00
2022-08-17T02:13:06.473Z,4.53
2022-08-17T02:15:37.913Z,4.80
2022-08-17T02:18:10.202Z,5.72
2022-08-17T02:20:42.763Z,4.65
2022-08-17T02:23:15.805Z,4.70
2022-08-17T02:25:51.551Z,4.55
2022-08-17T02:28:22.407Z,4.57
2022-08-17T02:31:01.105Z,4.95
2022-08-17T02:33:42.611Z,4.20
2022-08-17T02:36:15.602Z,4.75
2022-08-17T02:38:46.738Z,4.10
2022-08-17T02:41:20.274Z,4.78
2022-08-17T02:43:51.435Z,4.30
2022-08-17T02:46:22.785Z,4.97
2022-08-17T02:48:53.589Z,4.90
2022-08-17T02:51:24.386Z,4.72
2022-08-17T02:54:38.940Z,4.82
2022-08-17T02:56:49.301Z,5.07
2022-08-17T02:59:20.193Z,4.80
2022-08-17T03:01:51.395Z,5.30
2022-08-17T03:04:22.235Z,5.72
2022-08-17T03:06:53.457Z,5.07
2022-08-17T03:09:24.629Z,5.80
2022-08-17T03:11:58.320Z,5.28
2022-08-17T03:14:29.350Z,5.32
2022-08-17T03:17:00.090Z,5.40
2022-08-17T03:19:31.350Z,5.35
2022-08-17T03:22:03.396Z,6.88
2022-08-17T03:24:54.183Z,6.75
2022-08-17T03:27:29.468Z,6.32
2022-08-17T03:30:00.592Z,6.25
2022-08-17T03:32:31.416Z,7.63
2022-08-17T03:35:03.721Z,6.78
2022-08-17T03:37:34.579Z,6.75
2022-08-17T03:40:07.984Z,7.63
2022-08-17T03:42:42.994Z,8.18
2022-08-17T03:45:16.688Z,7.80
2022-08-17T03:48:08.732Z,7.45
2022-08-17T03:50:51.816Z,8.07
2022-08-17T03:53:35.345Z,7.97
2022-08-17T03:56:20.022Z,7.80
2022-08-17T03:58:53.841Z,7.75
2022-08-17T04:01:24.867Z,7.55
2022-08-17T04:03:56.097Z,6.90
2022-08-17T04:06:26.858Z,6.13
2022-08-17T04:08:57.860Z,5.43
2022-08-17T04:11:28.621Z,5.40
2022-08-17T04:14:02.775Z,5.25
2022-08-17T04:16:34.381Z,5.40
2022-08-17T04:19:05.191Z,6.13
2022-08-17T04:21:36.582Z,6.45
2022-08-17T04:24:08.342Z,6.18
2022-08-17T04:26:54.092Z,4.82
2022-08-17T04:29:28.855Z,6.57
2022-08-17T04:32:24.833Z,6.28
2022-08-17T04:35:11.540Z,6.10
2022-08-17T04:37:42.426Z,6.88
2022-08-17T04:40:27.585Z,7.07
2022-08-17T04:43:04.829Z,6.50
2022-08-17T04:45:55.450Z,6.47
2022-08-17T04:48:36.651Z,6.32
2022-08-17T04:51:12.219Z,6.80
2022-08-17T04:53:45.494Z,7.07
2022-08-17T04:56:25.278Z,6.63
2022-08-17T04:58:58.227Z,7.28
2022-08-17T05:01:33.974Z,6.20
2022-08-17T05:04:21.430Z,7.05
2022-08-17T05:06:58.180Z,8.00
2022-08-17T05:09:29.404Z,7.35
2022-08-17T05:12:04.182Z,7.75
2022-08-17T05:14:35.012Z,7.82
2022-08-17T05:17:11.119Z,4.40
2022-08-17T05:19:42.564Z,8.10
2022-08-17T05:22:13.561Z,8.35
2022-08-17T05:24:53.953Z,8.93
2022-08-17T05:27:29.791Z,8.00
2022-08-17T05:30:06.880Z,6.93
2022-08-17T05:32:40.648Z,8.10
2022-08-17T05:35:12.325Z,7.85
2022-08-17T05:37:43.081Z,7.47
2022-08-17T05:40:15.164Z,7.85
2022-08-17T05:42:46.051Z,8.30
2022-08-17T05:45:46.042Z,8.38
2022-08-17T05:48:13.262Z,7.72
2022-08-17T05:50:51.812Z,8.25
2022-08-17T05:53:27.804Z,8.73
2022-08-17T05:56:29.226Z,9.17
2022-08-17T05:59:08.515Z,8.30
2022-08-17T06:01:47.889Z,7.88
2022-08-17T06:04:29.572Z,6.97
2022-08-17T06:07:10.599Z,7.75
2022-08-17T06:09:45.494Z,7.93
2022-08-17T06:12:32.096Z,8.32
2022-08-17T06:15:19.712Z,7.72
2022-08-17T06:17:50.587Z,7.70
2022-08-17T06:20:24.261Z,8.23
2022-08-17T06:23:06.151Z,8.18
2022-08-17T06:25:42.176Z,8.30
2022-08-17T06:28:16.856Z,5.77
2022-08-17T06:30:59.251Z,3.42
2022-08-17T06:33:37.117Z,3.53
2022-08-17T06:36:29.485Z,7.60
2022-08-17T06:39:10.633Z,7.10
2022-08-17T06:41:50.403Z,7.45
2022-08-17T06:44:42.207Z,2.25
2022-08-17T06:47:29.285Z,7.75
2022-08-17T06:50:11.912Z,7.57
2022-08-17T06:52:53.374Z,7.75
2022-08-17T06:55:37.266Z,7.93
2022-08-17T06:58:16.423Z,7.00
2022-08-17T07:00:50.984Z,7.47
2022-08-17T07:03:32.049Z,6.90
2022-08-17T07:06:07.940Z,7.20
2022-08-17T07:08:52.935Z,7.57
2022-08-17T07:11:30.371Z,6.45
2022-08-17T07:14:13.993Z,7.13
2022-08-17T07:16:52.017Z,6.93
2022-08-17T07:19:26.487Z,5.13
2022-08-17T07:22:06.395Z,2.92
2022-08-17T07:24:47.653Z,2.10
2022-08-17T07:27:22.475Z,4.30
2022-08-17T07:29:57.212Z,2.10
2022-08-17T07:32:32.907Z,4.25
2022-08-17T07:35:11.276Z,5.57
2022-08-17T07:37:44.439Z,5.43
2022-08-17T07:40:40.041Z,2.00
2022-08-17T07:43:29.369Z,4.90
2022-08-17T07:46:29.649Z,3.00
2022-08-17T07:49:18.903Z,4.63
2022-08-17T07:52:24.146Z,5.57
2022-08-17T07:54:55.054Z,5.25
2022-08-17T07:57:46.195Z,5.45
2022-08-17T08:00:31.663Z,6.85
2022-08-17T08:03:10.709Z,5.85
2022-08-17T08:05:52.887Z,6.20
2022-08-17T08:08:35.995Z,5.97
2022-08-17T08:11:11.704Z,5.38
2022-08-17T08:13:46.593Z,6.30
2022-08-17T08:16:29.788Z,6.47
2022-08-17T08:19:03.707Z,5.93
2022-08-17T08:21:49.490Z,6.05
2022-08-17T08:24:50.355Z,6.50
2022-08-17T08:27:35.932Z,5.28
2022-08-17T08:30:14.624Z,5.70
2022-08-17T08:33:09.907Z,5.72
2022-08-17T08:35:47.479Z,6.70
2022-08-17T08:38:27.424Z,7.15
2022-08-17T08:41:10.667Z,7.15
2022-08-17T08:43:53.272Z,2.70
2022-08-17T08:46:37.312Z,3.33
2022-08-17T08:50:05.795Z,2.78
2022-08-17T08:52:55.212Z,2.65
2022-08-17T08:55:35.927Z,2.42
2022-08-17T08:58:31.908Z,4.30
2022-08-17T09:01:03.347Z,2.60
2022-08-17T09:04:23.285Z,2.30
2022-08-17T09:07:05.133Z,2.78
2022-08-17T09:09:45.743Z,2.40
2022-08-17T09:12:29.526Z,2.83
2022-08-17T09:15:12.339Z,2.58
2022-08-17T09:18:03.490Z,2.17
2022-08-17T09:20:50.368Z,2.40
2022-08-17T09:23:33.821Z,2.05
2022-08-17T09:26:12.531Z,1.60
2022-08-17T09:28:48.534Z,1.98
2022-08-17T09:31:25.995Z,1.50
2022-08-17T09:34:02.526Z,1.70
2022-08-17T09:36:44.446Z,1.58
2022-08-17T09:39:20.493Z,1.42
2022-08-17T09:41:58.860Z,1.70
2022-08-17T09:44:39.165Z,1.58
2022-08-17T09:47:15.763Z,2.10
2022-08-17T09:49:53.683Z,2.30
2022-08-17T09:52:30.548Z,2.70
2022-08-17T09:57:50.716Z,2.95
2022-08-17T10:00:28.379Z,2.72
2022-08-17T10:03:20.213Z,2.20
2022-08-17T10:05:58.251Z,3.13
2022-08-17T10:08:39.442Z,2.92
2022-08-17T10:11:51.420Z,2.15
2022-08-17T10:14:36.421Z,1.85
2022-08-17T10:17:22.968Z,1.75
2022-08-17T10:20:02.215Z,2.42
2022-08-17T10:22:55.021Z,3.50
2022-08-17T10:25:54.562Z,2.03
2022-08-17T10:28:30.451Z,1.67
2022-08-17T10:31:32.986Z,1.80
2022-08-17T10:34:20.017Z,3.40
2022-08-17T10:36:58.697Z,2.28
2022-08-17T10:39:51.912Z,1.80
2022-08-17T10:42:32.834Z,2.03
2022-08-17T10:45:10.147Z,4.20
2022-08-17T10:50:51.171Z,2.50
2022-08-17T10:53:52.352Z,2.20
2022-08-17T10:56:40.163Z,2.70
2022-08-17T10:59:51.045Z,2.88
2022-08-17T11:02:28.381Z,2.45
2022-08-17T11:05:23.983Z,2.67
2022-08-17T11:08:20.800Z,4.00
2022-08-17T11:11:04.743Z,2.00
2022-08-17T11:13:45.635Z,2.33
2022-08-17T11:16:48.225Z,1.85
2022-08-17T11:19:43.757Z,2.35
2022-08-17T11:22:41.197Z,1.80
2022-08-17T11:25:19.946Z,1.55
2022-08-17T11:27:55.607Z,1.83
2022-08-17T11:30:48.864Z,2.20
2022-08-17T11:33:49.868Z,1.80
2022-08-17T11:36:32.760Z,1.40
2022-08-17T11:39:08.755Z,1.90
2022-08-17T11:41:51.547Z,1.98
2022-08-17T11:44:38.038Z,1.35
2022-08-17T11:47:29.568Z,1.47
2022-08-17T11:50:27.991Z,1.45
2022-08-17T11:53:02.083Z,1.05
2022-08-17T11:56:07.692Z,1.30
2022-08-17T11:58:46.371Z,1.38
2022-08-17T12:01:56.002Z,1.23
2022-08-17T12:04:33.009Z,1.30
2022-08-17T12:07:11.100Z,1.20
2022-08-17T12:09:48.445Z,1.55
2022-08-17T12:12:23.386Z,1.33
2022-08-17T12:15:10.022Z,1.00
2022-08-17T12:17:47.098Z,1.00
2022-08-17T12:20:28.221Z,1.67
2022-08-17T12:23:06.494Z,1.15
2022-08-17T12:25:46.504Z,1.30
2022-08-17T12:28:27.366Z,1.77
2022-08-17T12:31:03.069Z,1.02
2022-08-17T12:33:36.284Z,1.40
2022-08-17T12:36:12.977Z,1.27
2022-08-17T12:41:34.783Z,1.38
2022-08-17T12:44:09.892Z,1.23
2022-08-17T12:46:52.596Z,1.25
2022-08-17T12:49:29.371Z,1.38
2022-08-17T12:52:16.355Z,1.40
2022-08-17T12:54:57.119Z,1.45
2022-08-17T12:57:36.062Z,1.08
2022-08-17T13:00:16.171Z,1.25
2022-08-17T13:02:51.731Z,1.30
2022-08-17T13:05:30.932Z,1.10
2022-08-17T13:08:05.150Z,1.20
2022-08-17T13:10:38.822Z,1.50
2022-08-17T13:13:25.253Z,1.30
2022-08-17T13:15:59.057Z,1.50
2022-08-17T13:18:41.806Z,1.25
2022-08-17T13:21:22.503Z,1.65
2022-08-17T13:24:02.450Z,1.40
2022-08-17T13:26:36.791Z,1.25
2022-08-17T13:29:24.350Z,1.73
2022-08-17T13:32:04.714Z,1.30
2022-08-17T13:35:14.173Z,1.80
2022-08-17T13:37:38.325Z,1.70
2022-08-17T13:40:32.474Z,1.92
2022-08-17T13:43:03.779Z,1.40
2022-08-17T13:45:51.980Z,1.65
2022-08-17T13:48:27.834Z,2.00
2022-08-17T13:51:26.476Z,2.13
2022-08-17T13:54:23.148Z,1.92
2022-08-17T13:57:07.141Z,1.85
2022-08-17T13:59:54.655Z,1.33
2022-08-17T14:02:30.424Z,1.95
2022-08-17T14:05:06.781Z,2.40
2022-08-17T14:07:40.969Z,2.22
2022-08-17T14:10:16.469Z,1.77
2022-08-17T14:12:50.929Z,2.47
2022-08-17T14:15:56.330Z,2.10
2022-08-17T14:18:42.052Z,1.65
2022-08-17T14:21:13.201Z,2.10
2022-08-17T14:23:48.988Z,1.70
2022-08-17T14:26:26.423Z,2.33
2022-08-17T14:28:57.636Z,1.77
2022-08-17T14:31:31.865Z,2.03
2022-08-17T14:34:10.974Z,1.70
2022-08-17T14:36:48.449Z,1.70
2022-08-17T14:39:21.052Z,1.73
2022-08-17T14:41:53.347Z,1.45
2022-08-17T14:44:24.871Z,1.30
2022-08-17T14:46:56.383Z,1.80
2022-08-17T14:49:30.735Z,2.05
2022-08-17T14:52:02.924Z,1.73
2022-08-17T14:54:40.199Z,2.10
2022-08-17T14:57:26.049Z,1.90
2022-08-17T15:00:05.876Z,1.92
2022-08-17T15:02:49.072Z,2.10
2022-08-17T15:05:25.259Z,1.90
2022-08-17T15:07:56.932Z,1.70
2022-08-17T15:10:28.924Z,1.95
2022-08-17T15:13:00.799Z,1.75
2022-08-17T15:15:33.580Z,1.70
2022-08-17T15:18:05.128Z,1.63
2022-08-17T15:20:39.247Z,1.75
2022-08-17T15:23:15.813Z,1.90
2022-08-17T15:25:47.564Z,2.00
2022-08-17T15:28:19.127Z,1.85
2022-08-17T15:30:50.526Z,2.08
2022-08-17T15:33:24.600Z,1.77
2022-08-17T15:36:01.482Z,1.60
2022-08-17T15:38:39.418Z,1.83
2022-08-17T15:41:15.428Z,1.92
2022-08-17T15:43:47.632Z,0.90
2022-08-17T15:46:21.397Z,0.80
2022-08-17T15:48:55.189Z,1.10
2022-08-17T15:51:30.876Z,1.30
2022-08-17T15:54:18.735Z,1.00
2022-08-17T15:56:54.165Z,1.00
2022-08-17T15:59:25.186Z,1.00
2022-08-17T16:03:13.738Z,1.00
2022-08-17T16:04:48.752Z,1.00
2022-08-17T16:07:26.828Z,1.10
2022-08-17T16:09:58.174Z,1.02
2022-08-17T16:12:29.808Z,1.20
2022-08-17T16:15:01.343Z,1.52
2022-08-17T16:17:40.177Z,1.40
2022-08-17T16:20:20.108Z,1.25
2022-08-17T16:22:55.474Z,1.30
2022-08-17T16:25:49.714Z,1.42
2022-08-17T16:28:21.283Z,1.10
2022-08-17T16:30:53.009Z,1.58
2022-08-17T16:33:26.446Z,1.70
2022-08-17T16:36:00.666Z,1.40
2022-08-17T16:38:36.087Z,1.40
2022-08-17T16:41:09.780Z,1.27
2022-08-17T16:43:46.405Z,1.10
2022-08-17T16:46:21.774Z,1.13
2022-08-17T16:51:29.816Z,1.30
2022-08-17T16:54:05.058Z,1.27
2022-08-17T16:56:38.728Z,2.33
2022-08-17T16:59:21.160Z,1.95
2022-08-17T17:02:13.102Z,1.20
2022-08-17T17:04:50.622Z,1.27
2022-08-17T17:07:38.713Z,1.48
2022-08-17T17:10:19.104Z,1.40
2022-08-17T17:13:01.212Z,1.50
2022-08-17T17:15:46.061Z,1.50
2022-08-17T17:18:20.694Z,1.70
2022-08-17T17:20:58.145Z,1.55
2022-08-17T17:23:44.581Z,1.40
2022-08-17T17:26:35.205Z,1.50
2022-08-17T17:29:35.821Z,1.50
2022-08-17T17:32:28.503Z,1.20
2022-08-17T17:35:07.823Z,1.38
2022-08-17T17:37:42.405Z,1.77
2022-08-17T17:40:22.047Z,1.45
2022-08-17T17:43:14.524Z,1.67
2022-08-17T17:46:26.397Z,1.63
2022-08-17T17:48:53.002Z,1.75
2022-08-17T17:51:55.721Z,1.40
2022-08-17T17:54:39.755Z,1.70
2022-08-17T17:57:22.729Z,1.30
2022-08-17T18:00:03.987Z,1.40
2022-08-17T18:03:04.600Z,1.40
2022-08-17T18:05:55.833Z,1.00
2022-08-17T18:08:53.161Z,1.38
2022-08-17T18:11:40.301Z,1.57
2022-08-17T18:14:29.261Z,1.58
2022-08-17T18:17:05.557Z,1.27
2022-08-17T18:19:39.299Z,2.03
2022-08-17T18:22:17.054Z,2.63
2022-08-17T18:24:54.348Z,1.70
2022-08-17T18:27:31.884Z,1.40
2022-08-17T18:30:09.207Z,1.83
2022-08-17T18:32:46.867Z,1.48
2022-08-17T18:35:35.400Z,2.15
2022-08-17T18:38:23.459Z,1.75
2022-08-17T18:41:04.728Z,1.95
2022-08-17T18:43:52.903Z,2.00
2022-08-17T18:46:36.399Z,1.90
2022-08-17T18:49:29.432Z,1.92
2022-08-17T18:52:14.534Z,2.00
2022-08-17T18:55:05.949Z,2.20
2022-08-17T18:57:39.496Z,2.88
2022-08-17T19:00:20.583Z,2.10
2022-08-17T19:02:58.312Z,2.20
2022-08-17T19:05:37.640Z,2.20
2022-08-17T19:08:24.330Z,3.05
2022-08-17T19:10:58.786Z,1.58
2022-08-17T19:13:35.073Z,2.22
2022-08-17T19:16:15.427Z,1.17
2022-08-17T19:18:52.283Z,2.38
2022-08-17T19:21:30.846Z,1.25
2022-08-17T19:24:10.411Z,2.30
2022-08-17T19:26:55.381Z,2.28
2022-08-17T19:29:34.981Z,2.47
2022-08-17T19:32:07.090Z,2.00
2022-08-17T19:34:42.167Z,2.30
2022-08-17T19:37:26.931Z,1.42
2022-08-17T19:40:07.285Z,2.28
2022-08-17T19:42:48.191Z,1.70
2022-08-17T19:45:47.006Z,1.50
2022-08-17T19:48:29.396Z,1.27
2022-08-17T19:51:07.884Z,1.55
2022-08-17T19:54:07.250Z,1.73
2022-08-17T19:56:47.157Z,1.75
2022-08-17T19:59:27.404Z,1.92
2022-08-17T20:02:21.292Z,1.40
2022-08-17T20:04:56.941Z,2.20
2022-08-17T20:07:33.110Z,1.30
2022-08-17T20:10:12.813Z,1.90
2022-08-17T20:12:47.578Z,1.63
2022-08-17T20:15:28.128Z,1.95
2022-08-17T20:18:03.464Z,2.05
2022-08-17T20:20:41.094Z,1.38
2022-08-17T20:23:17.320Z,2.22
2022-08-17T20:25:57.994Z,1.50
2022-08-17T20:28:31.527Z,2.45
2022-08-17T20:31:02.850Z,1.73
2022-08-17T20:33:37.068Z,2.17
2022-08-17T20:36:21.042Z,2.50
2022-08-17T20:38:55.557Z,2.28
2022-08-17T20:41:32.839Z,2.25
2022-08-17T20:44:09.037Z,2.40
2022-08-17T20:47:00.997Z,2.63
2022-08-17T20:49:50.727Z,2.83
2022-08-17T20:52:54.159Z,2.13
2022-08-17T20:55:53.535Z,2.45
2022-08-17T20:58:45.525Z,2.60
2022-08-17T21:01:24.641Z,3.90
2022-08-17T21:03:57.595Z,2.03
2022-08-17T21:06:29.141Z,3.05
2022-08-17T21:09:22.082Z,3.25
2022-08-17T21:12:05.523Z,3.05
2022-08-17T21:15:00.525Z,3.33
2022-08-17T21:17:42.820Z,5.82
2022-08-17T21:20:28.487Z,3.35
2022-08-17T21:23:23.101Z,6.97
2022-08-17T21:26:15.311Z,6.75
2022-08-17T21:29:29.904Z,5.13
2022-08-17T21:32:32.514Z,7.35
2022-08-17T21:35:27.029Z,8.52
2022-08-17T21:38:05.539Z,7.65
2022-08-17T21:40:38.642Z,8.48
2022-08-17T21:43:25.312Z,7.88
2022-08-17T21:46:09.826Z,9.20
2022-08-17T21:48:50.118Z,10.00
2022-08-17T21:51:29.143Z,8.98
2022-08-17T21:54:02.720Z,10.15
2022-08-17T21:56:36.878Z,8.65
2022-08-17T21:59:11.553Z,9.73
2022-08-17T22:01:43.939Z,8.75
2022-08-17T22:04:30.589Z,9.93
2022-08-17T22:07:03.497Z,10.13
2022-08-17T22:09:37.290Z,10.35
2022-08-17T22:12:12.270Z,10.88
2022-08-17T22:14:53.345Z,11.05
2022-08-17T22:17:28.381Z,3.50
2022-08-17T22:20:04.556Z,10.32
2022-08-17T22:23:02.159Z,12.38
2022-08-17T22:25:31.376Z,8.63
2022-08-17T22:28:03.801Z,3.67
2022-08-17T22:30:40.869Z,12.27
2022-08-17T22:33:34.769Z,13.20
2022-08-17T22:36:30.236Z,10.63
2022-08-17T22:39:03.753Z,14.18
2022-08-17T22:41:47.761Z,14.23
2022-08-17T22:44:23.400Z,13.23
2022-08-17T22:47:11.582Z,8.70
2022-08-17T22:49:53.290Z,13.65
2022-08-17T22:52:34.248Z,13.57
2022-08-17T22:55:23.389Z,4.20
2022-08-17T22:58:07.486Z,8.60
2022-08-17T23:00:43.330Z,14.55
2022-08-17T23:03:19.119Z,6.35
2022-08-17T23:06:07.155Z,12.70
2022-08-17T23:08:48.905Z,15.48
2022-08-17T23:11:20.172Z,9.38
2022-08-17T23:14:08.685Z,16.77
2022-08-17T23:16:40.775Z,13.77
2022-08-17T23:19:11.719Z,15.85
2022-08-17T23:21:45.023Z,8.82
2022-08-17T23:24:29.807Z,15.73
2022-08-17T23:27:00.959Z,14.45
2022-08-17T23:29:32.536Z,17.35
2022-08-17T23:32:04.977Z,15.68
2022-08-17T23:34:36.211Z,15.98
2022-08-17T23:37:07.509Z,16.58
2022-08-17T23:39:41.617Z,8.65
2022-08-17T23:42:14.525Z,7.05
2022-08-17T23:44:45.821Z,18.25
2022-08-17T23:47:16.855Z,16.50
2022-08-17T23:49:47.913Z,13.73
2022-08-17T23:52:19.060Z,16.05
2022-08-17T23:54:53.590Z,17.35
2022-08-17T23:57:33.530Z,17.38
